• Join FlightAware (Why Join?)
  • Login
  • US Flag 
02:29AM EDT


 

Airport Tracker/Info


-or-


 

Live Flight TrackerFlight Track Log ✈ SKW6528 ✈ 30-Apr-2013 ✈ KDEN - KSGF

Flight Track Log - Related Links

Times and Time Zones

All times are in EDT time to prevent confusion due to time zone crossing. See the SKW6528 flight status page for this flight to view local times or setup timezone preferences in your user account.

Time Position Orientation Groundspeed Altitude Reporting Facility
EDT Latitude Longitude Course Direction KTS MPH feet Rate Location/Type
12:22PM 39.8833 -104.6000 90° East 184 212 6,300  Level Denver TRACON
12:23PM 39.8500 -104.5333 123° Southeast 224 258 8,600 1,680 Climbing Denver TRACON
12:25PM 39.7876 -104.1857 101° East  Level FlightAware Approximate
12:25PM 39.8183 -104.4192 110° East 272 313 10,300  Level Denver Center
12:26PM 39.7667 -104.0256 90° East  Level FlightAware Approximate
12:26PM 39.8064 -104.3056 98° East 321 369 11,800  Level Denver Center
12:27PM 39.7500 -103.8673 90° East  Level FlightAware Approximate
12:27PM 39.7917 -104.1831 99° East 341 392 13,300  Level Denver Center
12:28PM 39.7333 -103.7081 90° East  Level FlightAware Approximate
12:28PM 39.7767 -104.0467 98° East 353 406 15,200  Level Denver Center
12:29PM 39.7622 -103.9169 98° East 362 417 16,700 1,500 Climbing Denver Center
12:30PM 39.7439 -103.7728 99° East 376 433 18,300 1,320 Climbing Denver Center
12:31PM 39.7336 -103.6472 96° East 370 426 19,500 1,020 Climbing Denver Center
12:32PM 39.7203 -103.4783 96° East 416 479 20,500 1,080 Climbing Denver Center
12:33PM 39.7092 -103.3397 96° East 420 483 21,800 1,200 Climbing Denver Center
12:34PM 39.6953 -103.1683 96° East 425 489 23,100 1,140 Climbing Denver Center
12:35PM 39.6833 -103.0222 96° East 426 490 24,200 900 Climbing Denver Center
12:36PM 39.6692 -102.8517 96° East 426 490 25,000 420 Climbing Denver Center
12:37PM 39.6589 -102.7261 96° East 433 498 25,100  Climbing Denver Center
12:38PM 39.6397 -102.5142 97° East 457 526 25,000 240 Descending Denver Center
12:39PM 39.6247 -102.3497 97° East 472 543 25,600 960 Climbing Denver Center
12:40PM 39.6081 -102.1650 97° East 470 541 27,000 720 Climbing Denver Center
12:41PM 39.5928 -102.0086 97° East 460 529 27,100 600 Climbing Denver Center
12:42PM 39.5714 -101.8231 98° East 461 531 28,300 1,080 Climbing Denver Center
12:43PM 39.5369 -101.6744 107° East 452 520 29,400 780 Climbing Denver Center
12:44PM 39.4967 -101.5061 107° East 441 507 30,000 480 Climbing Denver Center
12:45PM 39.4622 -101.3586 107° East 447 514 30,500 540 Climbing Denver Center
12:46PM 39.4211 -101.1844 107° East 451 519 31,200 600 Climbing Denver Center
12:47PM 39.3853 -101.0347 107° East 455 524 31,800 540 Climbing Denver Center
12:48PM 39.3439 -100.8642 107° East 450 518 32,400 480 Climbing Denver Center
12:49PM 39.3083 -100.7153 107° East 453 521 32,900 300 Climbing Denver Center
12:50PM 39.2661 -100.5439 108° East 451 519 33,100 60 Climbing Denver Center
12:52PM 39.2292 -100.3936 108° East 458 527 33,100  Level Denver Center
12:53PM 39.1850 -100.2139 108° East 471 542 33,100  Level Denver Center
12:54PM 39.1464 -100.0594 108° East 474 545 33,100  Level Denver Center
12:55PM 39.0986 -99.8681 108° East 480 552 33,100  Level Denver Center
12:56PM 39.0589 -99.7106 108° East 483 556 33,100  Level Denver Center
12:57PM 39.0131 -99.5272 108° East 481 554 33,100  Level Denver Center
12:58PM 38.9656 -99.3439 108° East 482 555 33,100  Level Denver Center
12:59PM 38.9119 -99.1372 108° East 478 550 33,100  Level Denver Center
01:00PM 38.8719 -98.9797 108° East 482 555 33,100  Level Denver Center
01:00PM 38.8647 -98.9533 109° East 479 551 33,100  Level Kansas City Center
01:02PM 38.8144 -98.7592 108° East 478 550 33,100  Level Kansas City Center
01:03PM 38.7708 -98.6006 109° East 473 544 33,100  Level Kansas City Center
01:04PM 38.7297 -98.4406 108° East 471 542 33,100  Level Kansas City Center
01:05PM 38.6881 -98.2819 109° East 470 541 33,100  Level Kansas City Center
01:06PM 38.6453 -98.1264 109° East 465 535 33,100  Level Kansas City Center
01:07PM 38.6031 -97.9692 109° East 464 534 33,100  Level Kansas City Center
01:08PM 38.5597 -97.8139 110° East 463 533 33,100  Level Kansas City Center
01:09PM 38.5092 -97.6275 109° East 460 529 33,100  Level Kansas City Center
01:10PM 38.4664 -97.4736 110° East 459 528 33,100  Level Kansas City Center
01:11PM 38.4244 -97.3203 109° East 456 525 33,100  Level Kansas City Center
01:12PM 38.3811 -97.1667 110° East 458 527 33,100  Level Kansas City Center
01:13PM 38.3383 -97.0147 110° East 456 525 33,100  Level Kansas City Center
01:14PM 38.2953 -96.8631 110° East 455 524 33,100  Level Kansas City Center
01:15PM 38.2525 -96.7114 110° East 454 522 33,100  Level Kansas City Center
01:16PM 38.2094 -96.5611 110° East 453 521 33,100  Level Kansas City Center
01:17PM 38.1572 -96.3800 110° East 455 524 33,100  Level Kansas City Center
01:18PM 38.1147 -96.2303 110° East 450 518 33,100  Level Kansas City Center
01:19PM 38.0667 -96.0689 111° Southeast 451 519 33,100  Level Kansas City Center
01:20PM 38.0258 -95.9283 110° East 447 514 33,100  Level Kansas City Center
01:21PM 37.9775 -95.7650 111° Southeast 444 511 33,100  Level Kansas City Center
01:22PM 37.9358 -95.6217 110° East 451 519 33,100  Level Kansas City Center
01:23PM 37.8936 -95.4778 110° East 446 513 33,100 -360 Level Kansas City Center
01:24PM 37.8497 -95.3325 111° Southeast 443 510 32,400 -840 Descending Kansas City Center
01:25PM 37.8069 -95.1906 111° Southeast 438 504 31,400 -1,020 Descending Kansas City Center
01:26PM 37.7572 -95.0283 111° Southeast 433 498 30,300 -1,140 Descending Kansas City Center
01:27PM 37.7175 -94.8958 111° Southeast 426 490 29,100 -1,980 Descending Kansas City Center
01:28PM 37.6667 -94.7339 112° Southeast 441 507 26,300 -2,880 Descending Kansas City Center
01:29PM 37.6225 -94.5886 111° Southeast 444 511 23,200 -3,000 Descending Kansas City Center
01:30PM 37.5803 -94.4519 111° Southeast 429 494 20,200 -3,000 Descending Kansas City Center
01:31PM 37.5386 -94.3211 112° Southeast 410 472 17,100 -2,100 Descending Kansas City Center
01:33PM 37.5006 -94.1958 111° Southeast 393 452 15,900 -2,160 Descending Kansas City Center
01:34PM 37.4717 -94.0692 106° East 371 427 12,700 -2,520 Descending Kansas City Center
01:35PM 37.4500 -93.9308 101° East 345 397 10,700 -1,920 Descending Kansas City Center
01:36PM 37.4342 -93.8314 101° East 308 354 8,800 -1,800 Descending Kansas City Center
01:37PM 37.4203 -93.7331 100° East 291 335 7,100 -1,680 Descending Kansas City Center
01:38PM 37.4050 -93.6403 102° East 279 321 5,400 -1,440 Descending Kansas City Center
01:39PM 37.3903 -93.5508 102° East 270 311 4,200 -1,140 Descending Kansas City Center
01:40PM 37.3753 -93.4628 102° East 264 304 3,100 -540 Descending Kansas City Center
01:41PM 37.3644 -93.3917 101° East 207 238 3,100  Level Kansas City Center